createdAt,value
2018-07-25T00:00:59.498Z,12.10
2018-07-25T00:03:28.289Z,12.33
2018-07-25T00:05:56.417Z,12.60
2018-07-25T00:08:24.493Z,14.00
2018-07-25T00:10:54.005Z,11.83
2018-07-25T00:13:22.444Z,11.93
2018-07-25T00:15:50.442Z,12.93
2018-07-25T00:18:18.495Z,12.27
2018-07-25T00:20:46.494Z,10.50
2018-07-25T00:23:14.511Z,10.10
2018-07-25T00:25:42.470Z,12.13
2018-07-25T00:28:10.485Z,11.20
2018-07-25T00:30:38.490Z,12.73
2018-07-25T00:33:06.509Z,12.07
2018-07-25T00:35:34.619Z,12.80
2018-07-25T00:38:02.793Z,12.10
2018-07-25T00:40:31.771Z,11.13
2018-07-25T00:43:00.810Z,12.37
2018-07-25T00:45:29.407Z,12.30
2018-07-25T00:47:57.582Z,13.33
2018-07-25T00:50:25.589Z,13.10
2018-07-25T00:52:53.554Z,13.10
2018-07-25T00:55:21.599Z,12.13
2018-07-25T00:57:49.537Z,12.90
2018-07-25T01:00:18.449Z,12.73
2018-07-25T01:02:46.978Z,12.70
2018-07-25T01:05:15.070Z,12.97
2018-07-25T01:07:43.057Z,11.60
2018-07-25T01:10:11.127Z,27.10
2018-07-25T01:12:39.225Z,18.60
2018-07-25T01:15:07.766Z,13.87
2018-07-25T01:17:35.797Z,13.33
2018-07-25T01:20:04.080Z,12.23
2018-07-25T01:22:33.030Z,10.83
2018-07-25T01:25:02.138Z,10.90
2018-07-25T01:27:30.722Z,11.23
2018-07-25T01:29:58.799Z,11.17
2018-07-25T01:32:26.805Z,11.47
2018-07-25T01:34:54.794Z,10.97
2018-07-25T01:37:22.749Z,11.50
2018-07-25T01:39:50.776Z,11.60
2018-07-25T01:42:18.980Z,11.90
2018-07-25T01:44:47.067Z,12.00
2018-07-25T01:47:15.065Z,12.73
2018-07-25T01:49:43.103Z,11.70
2018-07-25T01:52:11.071Z,11.60
2018-07-25T01:54:39.069Z,13.10
2018-07-25T01:57:07.209Z,14.63
2018-07-25T01:59:35.318Z,36.20
2018-07-25T02:02:04.318Z,14.97
2018-07-25T02:04:33.315Z,14.30
2018-07-25T02:07:01.274Z,13.67
2018-07-25T02:09:29.267Z,13.50
2018-07-25T02:11:57.243Z,14.37
2018-07-25T02:14:25.298Z,14.90
2018-07-25T02:16:53.259Z,13.98
2018-07-25T02:19:21.267Z,13.20
2018-07-25T02:21:49.262Z,13.87
2018-07-25T02:24:17.269Z,14.60
2018-07-25T02:26:45.245Z,13.40
2018-07-25T02:29:13.299Z,13.13
2018-07-25T02:31:41.457Z,12.73
2018-07-25T02:34:15.474Z,12.83
2018-07-25T02:36:43.448Z,12.63
2018-07-25T02:39:13.243Z,13.57
2018-07-25T02:41:41.700Z,12.95
2018-07-25T02:44:10.693Z,13.93
2018-07-25T02:46:39.682Z,13.30
2018-07-25T02:49:08.881Z,13.27
2018-07-25T02:51:37.359Z,13.03
2018-07-25T02:54:05.677Z,12.10
2018-07-25T02:56:33.872Z,14.67
2018-07-25T02:59:02.533Z,13.40
2018-07-25T03:01:30.530Z,13.30
2018-07-25T03:03:58.735Z,13.83
2018-07-25T03:06:26.742Z,15.10
2018-07-25T03:08:54.779Z,14.57
2018-07-25T03:11:22.727Z,13.10
2018-07-25T03:13:50.691Z,12.53
2018-07-25T03:16:18.675Z,13.17
2018-07-25T03:18:46.646Z,13.20
2018-07-25T03:21:14.645Z,13.53
2018-07-25T03:23:42.751Z,14.83
2018-07-25T03:26:11.798Z,13.35
2018-07-25T03:28:40.725Z,14.17
2018-07-25T03:31:09.792Z,18.07
2018-07-25T03:33:38.170Z,13.47
2018-07-25T03:36:06.360Z,13.20
2018-07-25T03:38:34.358Z,14.07
2018-07-25T03:41:02.378Z,13.60
2018-07-25T03:43:30.350Z,13.73
2018-07-25T03:45:58.346Z,13.33
2018-07-25T03:48:26.350Z,13.47
2018-07-25T03:50:54.368Z,14.63
2018-07-25T03:53:22.345Z,14.53
2018-07-25T03:55:50.371Z,14.27
2018-07-25T03:58:18.397Z,13.90
2018-07-25T04:00:46.405Z,15.53
2018-07-25T04:03:14.407Z,13.13
2018-07-25T04:05:42.660Z,14.63
2018-07-25T04:08:11.660Z,16.03
2018-07-25T04:10:42.350Z,14.10
2018-07-25T04:13:11.231Z,15.17
2018-07-25T04:15:39.795Z,13.90
2018-07-25T04:18:07.843Z,13.93
2018-07-25T04:20:36.229Z,13.90
2018-07-25T04:23:04.208Z,12.87
2018-07-25T04:25:32.175Z,13.73
2018-07-25T04:28:00.176Z,14.07
2018-07-25T04:30:28.201Z,13.17
2018-07-25T04:32:56.206Z,12.13
2018-07-25T04:35:24.193Z,13.90
2018-07-25T04:37:52.192Z,13.20
2018-07-25T04:40:20.225Z,13.53
2018-07-25T04:42:48.230Z,13.73
2018-07-25T04:45:16.190Z,13.43
2018-07-25T04:47:44.362Z,13.63
2018-07-25T04:50:13.136Z,14.20
2018-07-25T04:52:42.096Z,12.20
2018-07-25T04:55:11.013Z,13.50
2018-07-25T04:57:39.172Z,14.30
2018-07-25T05:00:07.316Z,12.83
2018-07-25T05:02:35.390Z,13.23
2018-07-25T05:05:03.876Z,14.47
2018-07-25T05:07:31.949Z,12.63
2018-07-25T05:09:59.933Z,14.00
2018-07-25T05:12:27.984Z,14.00
2018-07-25T05:14:55.911Z,14.07
2018-07-25T05:17:23.898Z,14.30
2018-07-25T05:19:51.862Z,13.97
2018-07-25T05:22:19.854Z,16.37
2018-07-25T05:24:47.837Z,14.98
2018-07-25T05:27:15.831Z,15.87
2018-07-25T05:29:44.271Z,14.30
2018-07-25T05:32:13.339Z,14.75
2018-07-25T05:34:42.304Z,13.20
2018-07-25T05:37:10.884Z,13.97
2018-07-25T05:39:39.016Z,13.97
2018-07-25T05:42:07.030Z,13.37
2018-07-25T05:44:35.005Z,15.50
2018-07-25T05:47:02.981Z,12.87
2018-07-25T05:49:31.005Z,12.60
2018-07-25T05:51:58.974Z,13.40
2018-07-25T05:54:26.942Z,14.77
2018-07-25T05:56:54.938Z,13.20
2018-07-25T05:59:22.911Z,13.37
2018-07-25T06:01:50.906Z,13.30
2018-07-25T06:04:18.947Z,17.07
2018-07-25T06:06:46.883Z,14.40
2018-07-25T06:09:15.267Z,13.63
2018-07-25T06:11:44.155Z,13.40
2018-07-25T06:14:13.175Z,13.90
2018-07-25T06:16:41.674Z,13.60
2018-07-25T06:19:09.814Z,14.10
2018-07-25T06:21:37.860Z,13.83
2018-07-25T06:24:05.914Z,13.40
2018-07-25T06:26:33.887Z,16.60
2018-07-25T06:29:01.931Z,15.67
2018-07-25T06:31:29.880Z,14.70
2018-07-25T06:33:57.866Z,13.47
2018-07-25T06:36:25.858Z,13.77
2018-07-25T06:38:53.861Z,12.07
2018-07-25T06:41:21.858Z,12.33
2018-07-25T06:43:49.871Z,12.87
2018-07-25T06:46:17.897Z,12.60
2018-07-25T06:48:46.123Z,12.93
2018-07-25T06:51:15.076Z,13.90
2018-07-25T06:53:44.188Z,12.13
2018-07-25T06:56:12.775Z,13.03
2018-07-25T06:58:40.918Z,13.60
2018-07-25T07:01:08.972Z,12.33
2018-07-25T07:03:36.974Z,13.00
2018-07-25T07:06:05.011Z,13.23
2018-07-25T07:08:33.027Z,12.67
2018-07-25T07:11:00.998Z,12.43
2018-07-25T07:13:29.037Z,12.50
2018-07-25T07:15:57.032Z,21.70
2018-07-25T07:18:25.063Z,30.00
2018-07-25T07:20:53.020Z,18.93
2018-07-25T07:23:21.008Z,15.67
2018-07-25T07:25:48.995Z,12.40
2018-07-25T07:28:17.049Z,14.93
2018-07-25T07:30:45.939Z,14.90
2018-07-25T07:33:14.878Z,12.57
2018-07-25T07:35:43.460Z,11.70
2018-07-25T07:38:11.517Z,11.70
2018-07-25T07:40:39.506Z,10.90
2018-07-25T07:43:07.510Z,12.60
2018-07-25T07:45:35.483Z,12.90
2018-07-25T07:48:03.525Z,9.50
2018-07-25T07:50:31.584Z,12.10
2018-07-25T07:52:59.582Z,11.27
2018-07-25T07:55:27.588Z,8.57
2018-07-25T07:57:55.550Z,9.77
2018-07-25T08:00:23.709Z,12.30
2018-07-25T08:02:51.674Z,13.00
2018-07-25T08:05:19.953Z,12.13
2018-07-25T08:07:48.089Z,13.40
2018-07-25T08:10:16.810Z,12.47
2018-07-25T08:12:45.670Z,13.53
2018-07-25T08:15:14.252Z,9.93
2018-07-25T08:17:42.365Z,8.97
2018-07-25T08:20:10.709Z,10.47
2018-07-25T08:22:38.680Z,9.73
2018-07-25T08:25:06.699Z,11.90
2018-07-25T08:27:34.665Z,10.67
2018-07-25T08:30:02.740Z,10.10
2018-07-25T08:32:30.702Z,12.27
2018-07-25T08:34:58.693Z,10.03
2018-07-25T08:37:26.648Z,9.97
2018-07-25T08:39:54.670Z,10.60
2018-07-25T08:42:22.633Z,11.90
2018-07-25T08:44:50.635Z,9.53
2018-07-25T08:47:18.775Z,9.20
2018-07-25T08:49:47.414Z,9.00
2018-07-25T08:52:16.367Z,11.70
2018-07-25T08:54:45.042Z,7.87
2018-07-25T08:57:13.106Z,9.40
2018-07-25T08:59:41.104Z,11.17
2018-07-25T09:02:09.097Z,8.13
2018-07-25T09:04:37.079Z,7.93
2018-07-25T09:07:05.242Z,9.60
2018-07-25T09:09:33.234Z,8.80
2018-07-25T09:12:01.226Z,11.30
2018-07-25T09:14:29.222Z,10.23
2018-07-25T09:16:57.259Z,8.70
2018-07-25T09:19:25.182Z,7.60
2018-07-25T09:21:53.156Z,7.77
2018-07-25T09:24:21.153Z,7.97
2018-07-25T09:26:49.161Z,7.53
2018-07-25T09:29:17.126Z,8.30
2018-07-25T09:31:45.218Z,8.37
2018-07-25T09:34:13.361Z,7.10
2018-07-25T09:36:41.777Z,7.07
2018-07-25T09:39:11.500Z,6.63
2018-07-25T09:41:40.460Z,6.27
2018-07-25T09:44:09.245Z,7.23
2018-07-25T09:46:37.380Z,6.83
2018-07-25T09:49:05.505Z,6.30
2018-07-25T09:51:33.505Z,7.50
2018-07-25T09:54:01.477Z,6.57
2018-07-25T09:56:29.471Z,8.23
2018-07-25T09:58:57.507Z,7.50
2018-07-25T10:01:25.468Z,8.80
2018-07-25T10:03:53.450Z,8.77
2018-07-25T10:06:21.505Z,12.50
2018-07-25T10:08:49.491Z,7.20
2018-07-25T10:11:17.499Z,6.67
2018-07-25T10:13:45.508Z,7.20
2018-07-25T10:16:13.490Z,9.50
2018-07-25T10:18:42.066Z,7.30
2018-07-25T10:21:11.151Z,6.87
2018-07-25T10:23:40.958Z,7.40
2018-07-25T10:26:11.986Z,7.07
2018-07-25T10:28:41.096Z,6.97
2018-07-25T10:31:09.784Z,6.60
2018-07-25T10:33:37.857Z,6.23
2018-07-25T10:36:06.830Z,6.80
2018-07-25T10:38:34.819Z,6.23
2018-07-25T10:41:02.865Z,9.37
2018-07-25T10:43:30.851Z,8.57
2018-07-25T10:45:58.899Z,6.77
2018-07-25T10:48:26.855Z,7.27
2018-07-25T10:50:54.835Z,5.87
2018-07-25T10:53:22.787Z,6.40
2018-07-25T10:55:50.800Z,7.27
2018-07-25T10:58:18.769Z,7.80
2018-07-25T11:00:46.781Z,5.60
2018-07-25T11:03:14.739Z,6.10
2018-07-25T11:05:43.075Z,6.37
2018-07-25T11:08:12.135Z,6.40
2018-07-25T11:10:40.997Z,6.40
2018-07-25T11:13:09.282Z,6.87
2018-07-25T11:15:37.406Z,6.10
2018-07-25T11:18:05.398Z,6.10
2018-07-25T11:20:33.370Z,7.80
2018-07-25T11:23:01.478Z,6.90
2018-07-25T11:25:29.359Z,5.90
2018-07-25T11:27:57.361Z,6.30
2018-07-25T11:30:25.350Z,7.00
2018-07-25T11:32:53.401Z,7.77
2018-07-25T11:35:21.338Z,6.80
2018-07-25T11:37:49.318Z,7.23
2018-07-25T11:40:17.302Z,6.90
2018-07-25T11:42:45.287Z,6.00
2018-07-25T11:45:13.635Z,5.40
2018-07-25T11:47:42.617Z,6.50
2018-07-25T11:50:11.838Z,5.80
2018-07-25T11:52:40.377Z,6.80
2018-07-25T11:55:08.429Z,5.70
2018-07-25T11:57:36.393Z,5.60
2018-07-25T12:00:04.773Z,5.53
2018-07-25T12:02:32.763Z,5.30
2018-07-25T12:05:00.726Z,5.87
2018-07-25T12:07:28.761Z,5.97
2018-07-25T12:09:56.697Z,6.50
2018-07-25T12:12:24.688Z,7.00
2018-07-25T12:14:52.696Z,5.63
2018-07-25T12:17:20.694Z,7.17
2018-07-25T12:19:48.657Z,5.70
2018-07-25T12:22:16.693Z,5.43
2018-07-25T12:24:44.831Z,4.93
2018-07-25T12:27:13.665Z,6.60
2018-07-25T12:29:42.618Z,5.90
2018-07-25T12:32:11.209Z,6.90
2018-07-25T12:34:39.300Z,6.00
2018-07-25T12:37:07.312Z,5.00
2018-07-25T12:39:35.299Z,6.20
2018-07-25T12:42:03.326Z,4.70
2018-07-25T12:44:31.299Z,5.23
2018-07-25T12:46:59.302Z,5.60
2018-07-25T12:49:27.294Z,7.63
2018-07-25T12:51:55.334Z,6.87
2018-07-25T12:54:23.320Z,8.30
2018-07-25T12:56:51.296Z,8.50
2018-07-25T12:59:19.311Z,8.60
2018-07-25T13:01:47.282Z,8.60
2018-07-25T13:04:15.428Z,6.87
2018-07-25T13:06:44.279Z,8.80
2018-07-25T13:09:13.544Z,8.17
2018-07-25T13:11:42.382Z,6.80
2018-07-25T13:14:10.455Z,7.13
2018-07-25T13:16:38.600Z,8.20
2018-07-25T13:19:06.610Z,7.40
2018-07-25T13:21:35.855Z,6.00
2018-07-25T13:24:03.961Z,8.00
2018-07-25T13:26:31.933Z,6.50
2018-07-25T13:28:59.940Z,8.20
2018-07-25T13:31:27.902Z,7.80
2018-07-25T13:33:55.973Z,8.60
2018-07-25T13:36:23.952Z,7.30
2018-07-25T13:38:51.959Z,7.07
2018-07-25T13:41:19.995Z,9.13
2018-07-25T13:43:47.984Z,7.93
2018-07-25T13:46:16.410Z,7.80
2018-07-25T13:48:45.032Z,8.17
2018-07-25T13:51:13.974Z,8.40
2018-07-25T13:53:42.578Z,8.27
2018-07-25T13:56:10.602Z,7.40
2018-07-25T13:58:38.604Z,9.10
2018-07-25T14:01:06.594Z,8.50
2018-07-25T14:03:34.616Z,7.80
2018-07-25T14:06:02.588Z,7.20
2018-07-25T14:08:30.589Z,8.50
2018-07-25T14:10:58.566Z,7.60
2018-07-25T14:13:26.566Z,6.20
2018-07-25T14:15:54.547Z,6.30
2018-07-25T14:18:22.554Z,7.27
2018-07-25T14:20:50.509Z,6.50
2018-07-25T14:23:18.510Z,6.80
2018-07-25T14:25:46.639Z,5.67
2018-07-25T14:28:15.639Z,5.03
2018-07-25T14:30:44.680Z,5.50
2018-07-25T14:33:13.577Z,7.33
2018-07-25T14:35:41.644Z,4.10
2018-07-25T14:38:09.662Z,6.50
2018-07-25T14:40:37.678Z,5.10
2018-07-25T14:43:05.780Z,5.70
2018-07-25T14:45:33.791Z,6.73
2018-07-25T14:48:01.771Z,5.60
2018-07-25T14:50:29.774Z,4.80
2018-07-25T14:52:57.759Z,4.63
2018-07-25T14:55:25.771Z,4.80
2018-07-25T14:57:53.785Z,4.20
2018-07-25T15:00:21.795Z,4.10
2018-07-25T15:02:49.810Z,4.13
2018-07-25T15:05:17.847Z,5.30
2018-07-25T15:07:46.477Z,4.67
2018-07-25T15:10:15.574Z,5.33
2018-07-25T15:12:47.900Z,4.77
2018-07-25T15:15:16.528Z,5.57
2018-07-25T15:17:45.434Z,5.00
2018-07-25T15:20:14.209Z,4.80
2018-07-25T15:22:42.260Z,6.03
2018-07-25T15:25:10.317Z,5.90
2018-07-25T15:27:38.297Z,4.90
2018-07-25T15:30:07.011Z,6.07
2018-07-25T15:32:35.029Z,4.10
2018-07-25T15:35:03.723Z,6.40
2018-07-25T15:37:31.702Z,5.23
2018-07-25T15:39:59.789Z,18.62
2018-07-25T15:42:27.866Z,4.30
2018-07-25T15:44:55.967Z,4.50
2018-07-25T15:47:23.976Z,4.90
2018-07-25T15:49:51.926Z,5.23
2018-07-25T15:52:19.920Z,5.80
2018-07-25T15:54:48.122Z,5.13
2018-07-25T15:57:16.912Z,4.60
2018-07-25T15:59:45.790Z,4.43
2018-07-25T16:02:13.993Z,4.73
2018-07-25T16:04:42.145Z,5.00
2018-07-25T16:07:10.147Z,5.00
2018-07-25T16:09:38.221Z,5.63
2018-07-25T16:12:06.285Z,6.10
2018-07-25T16:14:34.242Z,5.40
2018-07-25T16:17:02.261Z,5.10
2018-07-25T16:19:30.241Z,5.50
2018-07-25T16:21:58.275Z,6.40
2018-07-25T16:24:26.285Z,6.13
2018-07-25T16:26:54.258Z,5.77
2018-07-25T16:29:22.291Z,6.57
2018-07-25T16:31:50.303Z,7.47
2018-07-25T16:34:18.583Z,5.87
2018-07-25T16:36:47.444Z,6.40
2018-07-25T16:39:17.359Z,5.93
2018-07-25T16:41:46.207Z,6.60
2018-07-25T16:44:14.701Z,6.90
2018-07-25T16:46:42.738Z,6.93
2018-07-25T16:49:10.703Z,6.80
2018-07-25T16:51:38.970Z,7.47
2018-07-25T16:54:06.969Z,6.90
2018-07-25T16:56:35.025Z,7.00
2018-07-25T16:59:02.965Z,6.83
2018-07-25T17:01:30.965Z,7.20
2018-07-25T17:03:58.937Z,5.70
2018-07-25T17:06:26.938Z,6.47
2018-07-25T17:08:54.907Z,8.20
2018-07-25T17:11:22.914Z,7.40
2018-07-25T17:13:50.901Z,6.73
2018-07-25T17:16:19.194Z,6.53
2018-07-25T17:18:48.147Z,6.97
2018-07-25T17:21:16.862Z,6.70
2018-07-25T17:23:44.878Z,6.80
2018-07-25T17:26:12.927Z,6.80
2018-07-25T17:28:40.903Z,5.50
2018-07-25T17:31:08.912Z,4.37
2018-07-25T17:33:36.876Z,3.27
2018-07-25T17:36:04.890Z,3.53
2018-07-25T17:38:32.869Z,3.83
2018-07-25T17:41:00.875Z,3.50
2018-07-25T17:43:28.884Z,4.00
2018-07-25T17:45:56.870Z,3.17
2018-07-25T17:48:24.857Z,3.17
2018-07-25T17:50:52.819Z,3.60
2018-07-25T17:53:20.875Z,3.70
2018-07-25T17:55:49.509Z,3.17
2018-07-25T17:58:18.504Z,4.33
2018-07-25T18:00:47.088Z,3.37
2018-07-25T18:03:15.181Z,3.20
2018-07-25T18:05:43.135Z,3.83
2018-07-25T18:08:11.151Z,3.00
2018-07-25T18:10:39.138Z,3.43
2018-07-25T18:13:12.470Z,2.90
2018-07-25T18:15:40.472Z,3.87
2018-07-25T18:18:08.455Z,4.30
2018-07-25T18:20:36.453Z,3.73
2018-07-25T18:23:04.509Z,3.80
2018-07-25T18:25:32.481Z,4.23
2018-07-25T18:28:00.480Z,3.47
2018-07-25T18:30:28.490Z,2.93
2018-07-25T18:32:56.517Z,3.60
2018-07-25T18:35:24.526Z,2.50
2018-07-25T18:37:52.528Z,9.10
2018-07-25T18:40:20.776Z,3.83
2018-07-25T18:42:49.774Z,9.30
2018-07-25T18:45:18.733Z,3.87
2018-07-25T18:47:47.013Z,2.27
2018-07-25T18:50:15.131Z,2.00
2018-07-25T18:52:43.118Z,3.10
2018-07-25T18:55:11.098Z,3.30
2018-07-25T18:57:39.092Z,3.20
2018-07-25T19:00:07.095Z,2.63
2018-07-25T19:02:35.098Z,3.73
2018-07-25T19:05:03.731Z,2.83
2018-07-25T19:07:31.783Z,2.90
2018-07-25T19:09:59.704Z,2.90
2018-07-25T19:12:27.703Z,2.87
2018-07-25T19:15:32.359Z,3.73
2018-07-25T19:18:00.890Z,3.43
2018-07-25T19:20:29.037Z,2.90
2018-07-25T19:22:57.010Z,2.60
2018-07-25T19:25:25.010Z,2.80
2018-07-25T19:27:53.116Z,2.60
2018-07-25T19:30:21.518Z,3.03
2018-07-25T19:32:50.943Z,2.30
2018-07-25T19:35:19.804Z,2.40
2018-07-25T19:37:48.079Z,2.80
2018-07-25T19:40:16.239Z,2.23
2018-07-25T19:42:44.214Z,2.87
2018-07-25T19:45:12.187Z,2.53
2018-07-25T19:47:40.158Z,2.30
2018-07-25T19:50:08.169Z,3.03
2018-07-25T19:52:36.119Z,2.40
2018-07-25T19:55:04.115Z,2.43
2018-07-25T19:57:32.264Z,2.67
2018-07-25T20:00:00.270Z,2.60
2018-07-25T20:02:28.243Z,3.17
2018-07-25T20:04:56.204Z,3.20
2018-07-25T20:07:24.200Z,3.87
2018-07-25T20:09:52.655Z,3.37
2018-07-25T20:12:21.602Z,3.93
2018-07-25T20:14:54.992Z,3.60
2018-07-25T20:17:23.584Z,3.03
2018-07-25T20:19:52.471Z,3.43
2018-07-25T20:22:21.499Z,3.60
2018-07-25T20:24:50.057Z,3.50
2018-07-25T20:27:18.065Z,3.40
2018-07-25T20:29:46.055Z,3.73
2018-07-25T20:32:14.009Z,3.53
2018-07-25T20:34:42.003Z,3.20
2018-07-25T20:37:09.967Z,3.07
2018-07-25T20:39:37.971Z,3.30
2018-07-25T20:42:06.020Z,4.13
2018-07-25T20:44:34.510Z,4.43
2018-07-25T20:47:03.370Z,3.50
2018-07-25T20:49:31.342Z,4.20
2018-07-25T20:51:59.334Z,3.57
2018-07-25T20:54:27.331Z,3.70
2018-07-25T20:56:55.291Z,4.00
2018-07-25T20:59:23.923Z,3.97
2018-07-25T21:01:52.874Z,3.67
2018-07-25T21:04:21.560Z,4.70
2018-07-25T21:06:49.733Z,3.83
2018-07-25T21:09:17.866Z,3.47
2018-07-25T21:11:45.816Z,3.90
2018-07-25T21:14:13.787Z,4.90
2018-07-25T21:16:41.747Z,3.77
2018-07-25T21:19:09.715Z,4.17
2018-07-25T21:21:37.682Z,3.73
2018-07-25T21:24:05.689Z,3.63
2018-07-25T21:26:33.806Z,3.77
2018-07-25T21:29:01.796Z,4.43
2018-07-25T21:31:29.775Z,3.97
2018-07-25T21:33:57.751Z,3.20
2018-07-25T21:36:26.026Z,4.27
2018-07-25T21:38:54.698Z,3.73
2018-07-25T21:41:23.664Z,4.20
2018-07-25T21:43:52.967Z,3.80
2018-07-25T21:46:21.140Z,4.97
2018-07-25T21:48:49.178Z,4.30
2018-07-25T21:51:17.149Z,4.20
2018-07-25T21:53:45.315Z,4.10
2018-07-25T21:56:13.351Z,3.90
2018-07-25T21:58:41.316Z,4.30
2018-07-25T22:01:14.601Z,4.57
2018-07-25T22:03:42.647Z,4.53
2018-07-25T22:06:10.618Z,4.73
2018-07-25T22:08:38.570Z,4.93
2018-07-25T22:11:06.545Z,4.50
2018-07-25T22:13:34.525Z,3.83
2018-07-25T22:16:02.489Z,4.83
2018-07-25T22:18:30.484Z,4.43
2018-07-25T22:20:58.602Z,4.73
2018-07-25T22:23:26.787Z,4.57
2018-07-25T22:25:55.798Z,5.00
2018-07-25T22:28:24.840Z,5.03
2018-07-25T22:30:53.507Z,5.57
2018-07-25T22:33:21.506Z,4.13
2018-07-25T22:35:49.518Z,5.00
2018-07-25T22:38:17.478Z,5.30
2018-07-25T22:40:45.486Z,4.20
2018-07-25T22:43:13.462Z,5.07
2018-07-25T22:45:41.446Z,4.60
2018-07-25T22:48:09.817Z,4.17
2018-07-25T22:50:37.814Z,3.97
2018-07-25T22:53:05.798Z,4.00
2018-07-25T22:55:33.791Z,4.30
2018-07-25T22:58:01.735Z,4.33
2018-07-25T23:00:29.711Z,4.10
2018-07-25T23:02:57.942Z,5.37
2018-07-25T23:05:26.894Z,4.20
2018-07-25T23:07:55.933Z,4.10
2018-07-25T23:10:24.603Z,4.40
2018-07-25T23:12:52.634Z,4.20
2018-07-25T23:15:20.657Z,4.67
2018-07-25T23:17:48.641Z,4.20
2018-07-25T23:20:16.590Z,4.47
2018-07-25T23:22:54.998Z,3.93
2018-07-25T23:25:23.282Z,4.87
2018-07-25T23:27:51.767Z,5.07
2018-07-25T23:30:19.726Z,5.00
2018-07-25T23:32:48.184Z,4.50
2018-07-25T23:35:16.136Z,4.70
2018-07-25T23:37:44.159Z,4.33
2018-07-25T23:40:12.197Z,4.63
2018-07-25T23:42:40.179Z,4.90
2018-07-25T23:45:08.151Z,4.73
2018-07-25T23:47:36.119Z,5.20
2018-07-25T23:50:04.148Z,5.20
2018-07-25T23:52:32.189Z,5.70
2018-07-25T23:55:00.154Z,5.53
2018-07-25T23:57:28.880Z,5.30
2018-07-25T23:59:58.122Z,5.57
